Airfield :
LOGIN :

Register | Disclaimer

   EN    FR    IT 

 










Legend :    VFR   Marginal VFR   IFR   Intensive IFR   Very Intensive IFR
Visi :
Ceiling :
>= 8 km
>= 3000ft
5 to 8 km
1000 to 3000 ft
1500m to 5 km
500 to 1000 ft
800 to 1500m
200 to 500 ft
< 800m
< 200 ft
Symbols :   Thunderstorms  Fog  Heavy snow  Heavy precipitations  Wind > 20 kt
SIGMETs :     Misc.  Thunderstorms  Icing  Turbulence  Mountain Waves  Volcanic Ashes






- Airport Elevation : 788 ft
- IATA code : DCM


LFCK - Castres-Mazamet

CURRENT METAR :
  • 202130Z AUTO 00000KT CAVOK 06/03 Q1029 NOSIG

EXPIRED METARs :
  • 202100Z AUTO 28003KT CAVOK 06/02 Q1029 NOSIG
  • 202030Z AUTO 27003KT CAVOK 08/03 Q1028 NOSIG
  • 202000Z AUTO VRB02KT CAVOK 06/02 Q1028 NOSIG
  • 201930Z AUTO 26003KT CAVOK 08/02 Q1027 NOSIG
  • 201900Z AUTO 26004KT CAVOK 10/03 Q1027 NOSIG

TAF TAF LFCK
Valid from the 20 at 18:00 until the 21 at 03:00 UTC


201700Z 2018/2103 30005KT CAVOK
BECMG 2100/2103 OVC014



MET'MAP, your aeronautical weather chart ! - Copyright ORBIFLY December 2007 - Disclaimer

ORBIFLY MET'MAP TEAM :

Programming & Development : Alexandra Zaïnal
Concept & original design : Baudouin d'Aumeries
Assistance for programming : Marc-Olivier Méhu
Technical & hardware support : Manuel Goepfert

Contact : metmap@orbifly.com




SOURCES & CREDITS :

   NOAA